Time;durP1;ratioP1;P1;durP2;ratioP2;P2;SDS_P1;SDS_P2;PMS_P1;PMS_P2;Temp;Humidity;BMP_temperature;BMP_pressure;BME280_temperature;BME280_humidity;BME280_pressure;Samples;Min_cycle;Max_cycle;Signal;HPM_P1;HPM_P2
2022/02/05 00:00:25;;;;;;;;;;;;;;;;;;5075299;28;20048;-71
2022/02/05 00:03:00;;;;;;;7.90;0.97;;;;;;;;;;5079893;28;19960;-70
2022/02/05 00:05:53;;;;;;;3.97;0.80;;;;;;;;;;5077667;28;20086;-68
2022/02/05 00:16:11;;;;;;;3.20;0.50;;;;;;;;;;5089804;28;20021;-70
2022/02/05 00:43:12;;;;;;;5.20;1.00;;;;;;;;;;5091411;28;19947;-71
2022/02/05 00:45:42;;;;;;;3.20;1.10;;;;;;;;;;5073793;28;20052;-68
2022/02/05 00:48:10;;;;;;;1.20;0.60;;;;;;;;;;5073794;28;20032;-67
2022/02/05 00:50:40;;;;;;;1.80;0.37;;;;;;;;;;5072616;28;20032;-69
2022/02/05 00:53:14;;;;;;;3.20;1.13;;;;;;;;;;5088346;28;20036;-66
2022/02/05 00:55:48;;;;;;;4.63;1.70;;;;;;;;;;5088881;28;20032;-67
2022/02/05 00:58:15;;;;;;;3.88;1.80;;;;;;;;;;5083952;28;20020;-68
2022/02/05 01:00:42;;;;;;;5.47;1.40;;;;;;;;;;5089720;28;20020;-70
2022/02/05 01:03:08;;;;;;;7.40;1.67;;;;;;;;;;5079737;28;20391;-70
2022/02/05 01:05:35;;;;;;;4.57;1.80;;;;;;;;;;5073449;28;20104;-70
2022/02/05 01:08:03;;;;;;;5.13;2.17;;;;;;;;;;5077655;28;20447;-70
2022/02/05 01:10:29;;;;;;;5.53;1.53;;;;;;;;;;5072390;28;20033;-69
2022/02/05 01:13:01;;;;;;;3.63;1.17;;;;;;;;;;5072565;28;20032;-70
2022/02/05 01:15:36;;;;;;;5.87;1.13;;;;;;;;;;5069264;28;20487;-69
2022/02/05 01:18:06;;;;;;;5.20;1.45;;;;;;;;;;5068418;28;20028;-69
2022/02/05 01:21:02;;;;;;;4.70;1.23;;;;;;;;;;5067853;28;20077;-68
2022/02/05 01:23:54;;;;;;;3.30;0.90;;;;;;;;;;5070308;28;20071;-68
2022/02/05 01:26:31;;;;;;;4.40;1.10;;;;;;;;;;5072477;28;20482;-68
2022/02/05 01:29:04;;;;;;;2.17;0.80;;;;;;;;;;5087438;28;20069;-70
2022/02/05 01:31:38;;;;;;;4.23;1.10;;;;;;;;;;5090800;28;20502;-71
2022/02/05 01:34:17;;;;;;;3.47;1.58;;;;;;;;;;5072969;28;20116;-70
2022/02/05 02:22:48;;;;;;;5.00;2.07;;;;;;;;;;5066907;28;20033;-71
2022/02/05 02:27:51;;;;;;;2.20;0.80;;;;;;;;;;5076231;28;20396;-71
2022/02/05 02:30:23;;;;;;;2.23;0.87;;;;;;;;;;5085348;28;20485;-71
2022/02/05 02:32:58;;;;;;;2.47;0.53;;;;;;;;;;5085210;28;20024;-71
2022/02/05 02:35:27;;;;;;;5.10;0.90;;;;;;;;;;5091096;28;20459;-71
2022/02/05 02:38:04;;;;;;;9.23;2.00;;;;;;;;;;5091517;28;20497;-71
2022/02/05 02:40:59;;;;;;;1.97;1.10;;;;;;;;;;5090816;28;20055;-71
2022/02/05 02:43:24;;;;;;;3.97;0.90;;;;;;;;;;5084697;28;20037;-71
2022/02/05 02:45:51;;;;;;;4.43;1.20;;;;;;;;;;5066481;28;20108;-71
2022/02/05 02:48:18;;;;;;;6.37;2.30;;;;;;;;;;5066290;28;20033;-71
2022/02/05 02:58:58;;;;;;;;;;;;;;;;;;5090767;28;20044;-71
2022/02/05 03:01:25;;;;;;;1.70;0.67;;;;;;;;;;5072017;28;20259;-71
2022/02/05 03:03:52;;;;;;;8.60;1.10;;;;;;;;;;5071558;28;20098;-71
2022/02/05 03:06:19;;;;;;;3.07;0.80;;;;;;;;;;5066647;28;20115;-71
2022/02/05 03:08:48;;;;;;;7.40;0.63;;;;;;;;;;5078030;28;20072;-70
2022/02/05 03:11:19;;;;;;;2.23;0.67;;;;;;;;;;5087020;28;20650;-70
2022/02/05 03:13:47;;;;;;;4.43;1.10;;;;;;;;;;5086582;28;20028;-71
2022/02/05 03:16:22;;;;;;;2.50;0.70;;;;;;;;;;5092096;28;20415;-71
2022/02/05 03:21:22;;;;;;;3.07;1.40;;;;;;;;;;5091817;28;20441;-71
2022/02/05 03:23:49;;;;;;;1.63;0.63;;;;;;;;;;5091865;28;20398;-71
2022/02/05 03:26:16;;;;;;;3.33;1.13;;;;;;;;;;5090615;28;20016;-71
2022/02/05 03:28:42;;;;;;;11.90;1.33;;;;;;;;;;5086742;28;20111;-71
2022/02/05 03:31:09;;;;;;;4.37;0.70;;;;;;;;;;5086885;28;20032;-71
2022/02/05 03:33:36;;;;;;;1.40;0.77;;;;;;;;;;5086594;28;20483;-71
2022/02/05 03:36:03;;;;;;;4.83;0.60;;;;;;;;;;5081742;28;20032;-71
2022/02/05 03:38:30;;;;;;;2.07;0.60;;;;;;;;;;5078359;28;20032;-70
2022/02/05 03:40:56;;;;;;;3.73;0.90;;;;;;;;;;5071418;28;20039;-71
2022/02/05 03:43:23;;;;;;;3.63;1.00;;;;;;;;;;5091370;28;20399;-70
2022/02/05 03:45:50;;;;;;;8.93;0.80;;;;;;;;;;5091785;28;20016;-71
2022/02/05 03:48:16;;;;;;;5.33;0.90;;;;;;;;;;5091486;28;20060;-70
2022/02/05 03:50:43;;;;;;;1.90;0.80;;;;;;;;;;5086752;28;20048;-70
2022/02/05 03:53:10;;;;;;;3.60;0.73;;;;;;;;;;5086866;28;20032;-71
2022/02/05 03:55:37;;;;;;;1.50;0.73;;;;;;;;;;5069980;28;20016;-70
2022/02/05 03:58:05;;;;;;;2.67;0.80;;;;;;;;;;5069857;28;20112;-71
2022/02/05 04:00:31;;;;;;;7.77;0.80;;;;;;;;;;5073917;28;20024;-70
2022/02/05 04:02:59;;;;;;;5.90;0.90;;;;;;;;;;5074973;28;20681;-70
2022/02/05 04:05:26;;;;;;;1.70;0.70;;;;;;;;;;5074631;28;20063;-71
2022/02/05 04:07:54;;;;;;;1.80;0.70;;;;;;;;;;5078906;28;20024;-71
2022/02/05 04:10:27;;;;;;;3.13;0.70;;;;;;;;;;5094719;28;20479;-71
2022/02/05 04:15:58;;;;;;;0.85;0.45;;;;;;;;;;5081267;28;20055;-70
2022/02/05 04:18:25;;;;;;;1.13;0.50;;;;;;;;;;5069422;28;20024;-71
2022/02/05 04:20:52;;;;;;;2.47;0.83;;;;;;;;;;5069764;28;20094;-70
2022/02/05 04:23:19;;;;;;;1.70;0.70;;;;;;;;;;5074480;28;20024;-70
2022/02/05 04:25:47;;;;;;;1.20;0.37;;;;;;;;;;5074556;28;20024;-70
2022/02/05 04:28:14;;;;;;;3.27;0.80;;;;;;;;;;5074187;28;20024;-70
2022/02/05 04:30:41;;;;;;;1.90;1.07;;;;;;;;;;5074342;28;20475;-70
2022/02/05 04:33:07;;;;;;;2.00;0.60;;;;;;;;;;5073479;28;20036;-71
2022/02/05 04:35:34;;;;;;;2.50;0.40;;;;;;;;;;5073690;28;20062;-71
2022/02/05 04:38:04;;;;;;;0.77;0.33;;;;;;;;;;5077584;28;20567;-70
2022/02/05 04:40:40;;;;;;;0.70;0.30;;;;;;;;;;5089506;28;20173;-70
2022/02/05 05:04:23;;;;;;;3.60;0.30;;;;;;;;;;5088586;28;20032;-70
2022/02/05 05:09:29;;;;;;;0.73;0.50;;;;;;;;;;5093529;28;20047;-70
2022/02/05 05:12:21;;;;;;;2.00;0.60;;;;;;;;;;5093658;28;20448;-70
2022/02/05 05:15:39;;;;;;;1.43;0.40;;;;;;;;;;5093579;28;20032;-70
2022/02/05 05:20:23;;;;;;;4.45;0.40;;;;;;;;;;5088752;28;20051;-70
2022/02/05 05:22:50;;;;;;;0.67;0.30;;;;;;;;;;5088513;28;20024;-70
2022/02/05 05:25:17;;;;;;;0.60;0.40;;;;;;;;;;5088622;28;20032;-70
2022/02/05 05:27:44;;;;;;;3.80;0.80;;;;;;;;;;5088970;28;20032;-70
2022/02/05 05:30:11;;;;;;;3.33;0.60;;;;;;;;;;5093185;28;20099;-71
2022/02/05 05:32:39;;;;;;;1.47;0.57;;;;;;;;;;5093074;28;20073;-71
2022/02/05 05:35:06;;;;;;;2.87;0.60;;;;;;;;;;5093166;28;20084;-70
2022/02/05 05:37:33;;;;;;;2.27;0.50;;;;;;;;;;5093164;28;20027;-72
2022/02/05 05:40:00;;;;;;;0.60;0.40;;;;;;;;;;5074347;28;20436;-70
2022/02/05 05:42:32;;;;;;;1.30;0.40;;;;;;;;;;5088348;28;20498;-69
2022/02/05 05:47:51;;;;;;;1.27;0.67;;;;;;;;;;5083189;28;20040;-69
2022/02/05 05:53:03;;;;;;;;;;;;;;;;;;5093627;28;20063;-69
2022/02/05 05:55:29;;;;;;;2.17;0.47;;;;;;;;;;5092567;28;19915;-69
2022/02/05 05:57:57;;;;;;;3.37;0.60;;;;;;;;;;5092842;28;20287;-68
2022/02/05 06:00:23;;;;;;;1.60;0.70;;;;;;;;;;5093073;28;20024;-66
2022/02/05 06:02:50;;;;;;;1.63;0.60;;;;;;;;;;5090479;28;20028;-67
2022/02/05 06:05:17;;;;;;;2.17;0.80;;;;;;;;;;5087881;28;20257;-65
2022/02/05 06:07:43;;;;;;;1.30;0.60;;;;;;;;;;5086902;28;20292;-66
2022/02/05 06:10:10;;;;;;;2.00;0.70;;;;;;;;;;5087690;28;20269;-66
2022/02/05 06:12:37;;;;;;;1.10;0.50;;;;;;;;;;5088913;28;20336;-67
2022/02/05 06:15:07;;;;;;;3.03;0.80;;;;;;;;;;5092554;28;20276;-67
2022/02/05 06:17:34;;;;;;;1.23;0.47;;;;;;;;;;5092261;28;20256;-68
2022/02/05 06:20:01;;;;;;;6.37;0.60;;;;;;;;;;5091120;28;20252;-69
2022/02/05 06:22:27;;;;;;;1.87;0.60;;;;;;;;;;5075199;28;20386;-68
2022/02/05 06:24:54;;;;;;;2.27;0.90;;;;;;;;;;5069343;28;20623;-68
2022/02/05 06:27:21;;;;;;;2.50;0.70;;;;;;;;;;5065057;28;20265;-68
2022/02/05 06:29:47;;;;;;;3.33;0.87;;;;;;;;;;5065974;28;20253;-67
2022/02/05 06:32:17;;;;;;;3.33;0.50;;;;;;;;;;5065575;28;20257;-68
2022/02/05 06:34:44;;;;;;;1.97;0.50;;;;;;;;;;5066893;28;20812;-68
2022/02/05 06:37:11;;;;;;;1.37;0.60;;;;;;;;;;5070625;28;20261;-68
2022/02/05 06:39:38;;;;;;;4.10;0.80;;;;;;;;;;5070669;28;20258;-68
2022/02/05 06:42:05;;;;;;;1.53;0.47;;;;;;;;;;5082092;28;20366;-67
2022/02/05 06:44:31;;;;;;;2.87;0.80;;;;;;;;;;5090491;28;20257;-68
2022/02/05 06:46:58;;;;;;;3.03;1.20;;;;;;;;;;5089531;28;20265;-68
2022/02/05 06:49:26;;;;;;;3.43;0.93;;;;;;;;;;5085367;28;20281;-68
2022/02/05 06:51:53;;;;;;;1.57;0.83;;;;;;;;;;5085672;28;20261;-68
2022/02/05 06:54:20;;;;;;;2.17;0.80;;;;;;;;;;5085765;28;20838;-68
2022/02/05 06:56:47;;;;;;;3.50;1.03;;;;;;;;;;5086002;28;20245;-67
2022/02/05 06:59:14;;;;;;;3.43;0.77;;;;;;;;;;5090401;28;20682;-67
2022/02/05 07:01:40;;;;;;;10.00;0.90;;;;;;;;;;5082852;28;20944;-68
2022/02/05 07:04:07;;;;;;;2.97;1.00;;;;;;;;;;5070381;28;20376;-68
2022/02/05 07:06:34;;;;;;;3.13;0.80;;;;;;;;;;5070641;28;20257;-68
2022/02/05 07:09:03;;;;;;;1.63;0.90;;;;;;;;;;5069226;28;20679;-68
2022/02/05 07:11:30;;;;;;;2.80;0.90;;;;;;;;;;5065295;28;20296;-68
2022/02/05 07:13:58;;;;;;;1.47;0.80;;;;;;;;;;5065214;28;20281;-67
2022/02/05 07:16:31;;;;;;;2.23;0.90;;;;;;;;;;5073080;28;20329;-68
2022/02/05 07:21:48;;;;;;;1.67;0.93;;;;;;;;;;5090436;28;21491;-67
2022/02/05 07:29:45;;;;;;;2.17;0.65;;;;;;;;;;5094349;28;20047;-67
2022/02/05 07:32:12;;;;;;;3.43;0.60;;;;;;;;;;5090945;28;20078;-67
2022/02/05 07:34:39;;;;;;;1.30;0.70;;;;;;;;;;5089153;28;20256;-67
2022/02/05 07:37:06;;;;;;;4.33;0.60;;;;;;;;;;5075895;28;20269;-67
2022/02/05 07:39:37;;;;;;;3.03;0.70;;;;;;;;;;5068819;28;20265;-68
2022/02/05 07:42:04;;;;;;;1.70;0.60;;;;;;;;;;5071055;28;20316;-67
2022/02/05 07:44:31;;;;;;;5.90;0.80;;;;;;;;;;5073748;28;20261;-67
2022/02/05 07:47:00;;;;;;;3.83;0.77;;;;;;;;;;5073469;28;20348;-67
2022/02/05 07:49:30;;;;;;;3.50;0.90;;;;;;;;;;5073602;28;20319;-68
2022/02/05 07:51:57;;;;;;;2.37;0.80;;;;;;;;;;5073426;28;20289;-68
2022/02/05 07:54:23;;;;;;;2.37;1.00;;;;;;;;;;5070749;28;20778;-68
2022/02/05 07:56:50;;;;;;;4.20;0.87;;;;;;;;;;5077008;28;20351;-67
2022/02/05 07:59:18;;;;;;;1.07;0.70;;;;;;;;;;5088708;28;20255;-67
2022/02/05 08:01:44;;;;;;;2.17;0.70;;;;;;;;;;5088172;28;20256;-68
2022/02/05 08:04:11;;;;;;;2.50;0.70;;;;;;;;;;5090924;28;20730;-67
2022/02/05 08:06:38;;;;;;;2.87;1.03;;;;;;;;;;5093710;28;20340;-68
2022/02/05 08:09:16;;;;;;;2.30;0.67;;;;;;;;;;5083978;28;20320;-67
2022/02/05 08:11:49;;;;;;;3.40;0.73;;;;;;;;;;5073331;28;20268;-68
2022/02/05 08:14:16;;;;;;;1.93;0.57;;;;;;;;;;5072962;28;20359;-68
2022/02/05 08:16:49;;;;;;;1.40;0.57;;;;;;;;;;5070122;28;20660;-67
2022/02/05 08:19:16;;;;;;;1.20;0.50;;;;;;;;;;5068250;28;20265;-67
2022/02/05 08:21:43;;;;;;;2.07;0.80;;;;;;;;;;5067828;28;20277;-67
2022/02/05 08:24:09;;;;;;;4.53;0.77;;;;;;;;;;5069229;28;20268;-68
2022/02/05 08:26:37;;;;;;;1.37;0.50;;;;;;;;;;5071845;28;20260;-68
2022/02/05 08:29:05;;;;;;;1.97;0.60;;;;;;;;;;5080695;28;20291;-67
2022/02/05 08:31:32;;;;;;;0.63;0.40;;;;;;;;;;5094641;28;20253;-67
2022/02/05 08:33:58;;;;;;;1.33;0.80;;;;;;;;;;5094744;28;20244;-67
2022/02/05 08:36:25;;;;;;;3.67;0.90;;;;;;;;;;5094677;28;20249;-68
2022/02/05 08:38:53;;;;;;;1.10;0.60;;;;;;;;;;5090967;28;20640;-68
2022/02/05 08:41:20;;;;;;;1.50;0.80;;;;;;;;;;5089535;28;20985;-67
2022/02/05 08:43:47;;;;;;;3.40;0.57;;;;;;;;;;5086173;28;20802;-67
2022/02/05 08:46:13;;;;;;;2.10;0.53;;;;;;;;;;5068959;28;20322;-68
2022/02/05 08:48:40;;;;;;;3.73;0.40;;;;;;;;;;5071192;28;20285;-68
2022/02/05 08:51:07;;;;;;;1.03;0.80;;;;;;;;;;5073950;28;20268;-67
2022/02/05 08:53:34;;;;;;;7.87;0.80;;;;;;;;;;5074104;28;20700;-67
2022/02/05 08:56:01;;;;;;;2.37;0.60;;;;;;;;;;5073914;28;20257;-67
2022/02/05 08:58:27;;;;;;;1.80;0.60;;;;;;;;;;5074024;28;20258;-67
2022/02/05 09:01:08;;;;;;;1.13;0.50;;;;;;;;;;5070884;28;21069;-68
2022/02/05 09:03:45;;;;;;;1.07;0.60;;;;;;;;;;5068614;28;20254;-67
2022/02/05 09:06:12;;;;;;;1.77;0.70;;;;;;;;;;5068535;28;20269;-67
2022/02/05 09:08:50;;;;;;;0.93;0.60;;;;;;;;;;5068302;28;20833;-67
2022/02/05 09:11:33;;;;;;;1.50;0.60;;;;;;;;;;5071650;28;20638;-67
2022/02/05 09:14:47;;;;;;;0.70;0.40;;;;;;;;;;5073584;28;20264;-67
2022/02/05 09:16:46;;;;;;;2.20;0.47;;;;;;;;;;5058301;28;20620;-66
2022/02/05 09:19:14;;;;;;;1.07;0.67;;;;;;;;;;5073453;28;20261;-68
2022/02/05 09:21:40;;;;;;;1.10;0.57;;;;;;;;;;5073434;28;20326;-67
2022/02/05 09:24:07;;;;;;;0.53;0.30;;;;;;;;;;5068621;28;20289;-67
2022/02/05 09:26:41;;;;;;;3.87;0.77;;;;;;;;;;5073522;28;20264;-68
2022/02/05 09:29:15;;;;;;;0.90;0.50;;;;;;;;;;5088439;28;20293;-67
2022/02/05 09:31:41;;;;;;;0.67;0.37;;;;;;;;;;5088210;28;20288;-66
2022/02/05 09:34:08;;;;;;;1.20;0.30;;;;;;;;;;5092550;28;20261;-67
2022/02/05 09:36:35;;;;;;;1.40;0.60;;;;;;;;;;5093574;28;20291;-67
2022/02/05 09:39:02;;;;;;;1.00;0.60;;;;;;;;;;5091535;28;20352;-67
2022/02/05 09:41:29;;;;;;;2.73;0.70;;;;;;;;;;5077219;28;20291;-67
2022/02/05 09:43:56;;;;;;;1.90;0.60;;;;;;;;;;5073157;28;20578;-66
2022/02/05 09:46:23;;;;;;;2.00;0.60;;;;;;;;;;5068015;28;20262;-67
2022/02/05 09:48:50;;;;;;;3.47;0.60;;;;;;;;;;5067705;28;20284;-67
2022/02/05 09:51:19;;;;;;;3.07;0.60;;;;;;;;;;5066673;28;20257;-66
2022/02/05 09:53:49;;;;;;;3.83;0.60;;;;;;;;;;5067691;28;20265;-66
2022/02/05 09:56:17;;;;;;;1.33;0.50;;;;;;;;;;5071989;28;20268;-67
2022/02/05 09:58:44;;;;;;;1.00;0.50;;;;;;;;;;5072418;28;20797;-66
2022/02/05 10:01:18;;;;;;;3.63;0.60;;;;;;;;;;5084068;28;20653;-67
2022/02/05 10:03:45;;;;;;;3.27;0.50;;;;;;;;;;5081218;28;20288;-67
2022/02/05 10:06:13;;;;;;;3.03;0.70;;;;;;;;;;5072622;28;20763;-66
2022/02/05 10:08:41;;;;;;;2.10;0.77;;;;;;;;;;5067321;28;20281;-66
2022/02/05 10:11:08;;;;;;;1.73;0.60;;;;;;;;;;5067472;28;20331;-67
2022/02/05 10:13:35;;;;;;;0.77;0.50;;;;;;;;;;5067028;28;20648;-67
2022/02/05 10:16:02;;;;;;;3.50;0.70;;;;;;;;;;5067353;28;20344;-67
2022/02/05 10:18:29;;;;;;;1.47;0.77;;;;;;;;;;5071569;28;20820;-67
2022/02/05 10:20:57;;;;;;;1.40;0.60;;;;;;;;;;5072363;28;20262;-67
2022/02/05 10:23:23;;;;;;;0.60;0.47;;;;;;;;;;5078959;28;20264;-66
2022/02/05 10:25:51;;;;;;;1.53;0.50;;;;;;;;;;5092486;28;20804;-67
2022/02/05 10:28:18;;;;;;;1.03;0.43;;;;;;;;;;5092157;28;20767;-67
2022/02/05 10:30:50;;;;;;;0.33;0.30;;;;;;;;;;5087734;28;20291;-67
2022/02/05 10:33:34;;;;;;;1.63;1.00;;;;;;;;;;5087260;28;20252;-67
2022/02/05 10:36:09;;;;;;;2.77;0.63;;;;;;;;;;5087255;28;20339;-67
2022/02/05 10:44:00;;;;;;;2.40;0.70;;;;;;;;;;5092247;28;20489;-67
2022/02/05 10:46:39;;;;;;;2.67;0.67;;;;;;;;;;5079204;28;20809;-66
2022/02/05 10:49:06;;;;;;;2.03;0.60;;;;;;;;;;5089625;28;20392;-67
2022/02/05 10:51:47;;;;;;;3.17;0.67;;;;;;;;;;5090693;28;20260;-67
2022/02/05 10:54:33;;;;;;;1.17;0.50;;;;;;;;;;5086985;28;20292;-66
2022/02/05 10:57:11;;;;;;;1.13;0.57;;;;;;;;;;5087044;28;20271;-67
2022/02/05 11:05:12;;;;;;;2.30;1.20;;;;;;;;;;5086946;28;20321;-67
2022/02/05 11:07:59;;;;;;;2.00;0.50;;;;;;;;;;5087757;28;20487;-66
2022/02/05 11:13:54;;;;;;;1.42;0.80;;;;;;;;;;5075695;28;20300;-67
2022/02/05 11:20:58;;;;;;;1.47;0.73;;;;;;;;;;5070418;28;20628;-67
2022/02/05 11:23:27;;;;;;;2.20;1.10;;;;;;;;;;5071069;28;20257;-67
2022/02/05 11:25:54;;;;;;;1.03;0.60;;;;;;;;;;5075718;28;20252;-67
2022/02/05 11:28:39;;;;;;;1.07;0.60;;;;;;;;;;5075595;28;20281;-66
2022/02/05 11:31:13;;;;;;;2.67;0.82;;;;;;;;;;5092810;28;20260;-67
2022/02/05 11:33:41;;;;;;;1.57;0.57;;;;;;;;;;5095880;28;20024;-67
2022/02/05 11:36:39;;;;;;;0.67;0.50;;;;;;;;;;5093625;28;20341;-66
2022/02/05 11:39:01;;;;;;;1.97;0.83;;;;;;;;;;5084340;28;20327;-66
2022/02/05 11:41:30;;;;;;;1.40;0.80;;;;;;;;;;5052517;28;20721;-66
2022/02/05 11:44:15;;;;;;;1.23;0.77;;;;;;;;;;5069941;28;20337;-66
2022/02/05 11:46:44;;;;;;;2.83;1.00;;;;;;;;;;5073109;28;20345;-67
2022/02/05 11:49:10;;;;;;;0.90;0.70;;;;;;;;;;5075279;28;20032;-67
2022/02/05 11:51:47;;;;;;;1.40;0.77;;;;;;;;;;5075079;28;20735;-67
2022/02/05 11:54:17;;;;;;;5.70;0.80;;;;;;;;;;5075261;28;20249;-66
2022/02/05 11:56:56;;;;;;;1.53;0.83;;;;;;;;;;5074865;28;20264;-66
2022/02/05 11:59:24;;;;;;;2.13;0.80;;;;;;;;;;5077785;28;20273;-66
2022/02/05 12:01:52;;;;;;;2.80;0.90;;;;;;;;;;5090143;28;20288;-67
2022/02/05 12:04:21;;;;;;;1.50;0.80;;;;;;;;;;5089995;28;20880;-67
2022/02/05 12:06:52;;;;;;;2.37;1.00;;;;;;;;;;5089857;28;20252;-67
2022/02/05 12:09:39;;;;;;;2.53;0.90;;;;;;;;;;5093279;28;20289;-67
2022/02/05 12:12:24;;;;;;;1.43;0.73;;;;;;;;;;5094766;28;20742;-67
2022/02/05 12:15:09;;;;;;;1.02;0.68;;;;;;;;;;5093804;28;20249;-66
2022/02/05 12:17:59;;;;;;;3.20;1.92;;;;;;;;;;5095171;28;20458;-66
2022/02/05 12:20:29;;;;;;;2.10;0.90;;;;;;;;;;5092949;28;20028;-67
2022/02/05 12:23:08;;;;;;;1.47;0.70;;;;;;;;;;5069672;28;20411;-66
2022/02/05 12:25:55;;;;;;;1.70;0.70;;;;;;;;;;5069244;28;20265;-67
2022/02/05 12:28:27;;;;;;;1.90;0.70;;;;;;;;;;5069251;28;20286;-66
2022/02/05 12:30:54;;;;;;;5.03;0.90;;;;;;;;;;5071813;28;20759;-68
2022/02/05 12:33:21;;;;;;;1.47;0.90;;;;;;;;;;5074489;28;20856;-66
2022/02/05 12:35:55;;;;;;;1.63;0.80;;;;;;;;;;5074514;28;20616;-66
2022/02/05 12:38:22;;;;;;;0.73;0.52;;;;;;;;;;5074380;28;20277;-67
2022/02/05 12:40:50;;;;;;;1.67;0.60;;;;;;;;;;5074294;28;20027;-66
2022/02/05 12:43:19;;;;;;;1.53;0.83;;;;;;;;;;5075217;28;20951;-66
2022/02/05 12:45:54;;;;;;;1.70;0.87;;;;;;;;;;5089461;28;20314;-65
2022/02/05 12:48:27;;;;;;;1.80;0.82;;;;;;;;;;5089060;28;20374;-67
2022/02/05 12:50:57;;;;;;;1.73;0.87;;;;;;;;;;5078599;28;20020;-66
2022/02/05 12:53:31;;;;;;;1.27;0.80;;;;;;;;;;5072233;28;20249;-65
2022/02/05 12:56:10;;;;;;;1.33;0.80;;;;;;;;;;5074072;28;20260;-67
2022/02/05 12:58:53;;;;;;;2.40;1.00;;;;;;;;;;5073789;28;20257;-67
2022/02/05 13:01:19;;;;;;;3.77;1.00;;;;;;;;;;5073874;28;20292;-66
2022/02/05 13:03:46;;;;;;;1.53;0.70;;;;;;;;;;5073627;28;20337;-66
2022/02/05 13:06:22;;;;;;;1.57;0.83;;;;;;;;;;5068443;28;20258;-66
2022/02/05 13:08:49;;;;;;;1.70;0.90;;;;;;;;;;5068438;28;20874;-65
2022/02/05 13:11:20;;;;;;;2.50;1.20;;;;;;;;;;5079688;28;20267;-65
2022/02/05 13:13:54;;;;;;;2.87;1.00;;;;;;;;;;5088508;28;20252;-65
2022/02/05 13:16:26;;;;;;;6.23;1.13;;;;;;;;;;5093719;28;20257;-67
2022/02/05 13:19:13;;;;;;;3.10;0.97;;;;;;;;;;5093823;28;20611;-65
2022/02/05 13:24:53;;;;;;;1.90;0.90;;;;;;;;;;5093562;28;20707;-65
2022/02/05 13:27:47;;;;;;;2.17;0.97;;;;;;;;;;5090652;28;20016;-67
2022/02/05 13:35:56;;;;;;;2.35;0.90;;;;;;;;;;5068761;28;20094;-65
2022/02/05 13:38:23;;;;;;;3.00;1.05;;;;;;;;;;5084109;28;20494;-65
2022/02/05 13:41:00;;;;;;;15.97;3.17;;;;;;;;;;5073081;28;20037;-66
2022/02/05 13:43:41;;;;;;;11.67;3.77;;;;;;;;;;5089221;28;20310;-66
2022/02/05 13:46:13;;;;;;;15.87;4.80;;;;;;;;;;5093249;28;20280;-65
2022/02/05 13:48:40;;;;;;;25.23;5.80;;;;;;;;;;5091883;28;20281;-65
2022/02/05 13:51:07;;;;;;;37.03;10.47;;;;;;;;;;5087730;28;20261;-65
2022/02/05 13:53:34;;;;;;;68.03;17.37;;;;;;;;;;5087471;28;20256;-67
2022/02/05 13:56:05;;;;;;;37.13;8.50;;;;;;;;;;5087793;28;20300;-67
2022/02/05 13:58:38;;;;;;;27.13;8.23;;;;;;;;;;5088638;28;20267;-67
2022/02/05 14:01:05;;;;;;;12.53;5.27;;;;;;;;;;5093200;28;20280;-66
2022/02/05 14:03:35;;;;;;;12.77;5.13;;;;;;;;;;5092923;28;20356;-66
2022/02/05 14:06:02;;;;;;;6.10;2.67;;;;;;;;;;5092624;28;20730;-67
2022/02/05 14:08:30;;;;;;;6.07;2.60;;;;;;;;;;5092832;28;20307;-67
2022/02/05 14:10:58;;;;;;;4.40;2.30;;;;;;;;;;5091411;28;20268;-67
2022/02/05 14:13:25;;;;;;;4.73;1.40;;;;;;;;;;5086672;28;20345;-67
2022/02/05 14:15:55;;;;;;;3.80;1.40;;;;;;;;;;5087409;28;20279;-67
2022/02/05 14:18:22;;;;;;;2.77;1.70;;;;;;;;;;5087151;28;20259;-67
2022/02/05 14:20:52;;;;;;;3.90;1.30;;;;;;;;;;5088006;28;20268;-67
2022/02/05 14:23:21;;;;;;;1.30;0.90;;;;;;;;;;5092340;28;20261;-67
2022/02/05 14:26:14;;;;;;;1.63;1.00;;;;;;;;;;5092699;28;20267;-68
2022/02/05 14:28:46;;;;;;;1.30;0.73;;;;;;;;;;5092077;28;20859;-67
2022/02/05 14:31:21;;;;;;;1.87;0.90;;;;;;;;;;5092500;28;20280;-68
2022/02/05 14:41:58;;;;;;;2.50;0.60;;;;;;;;;;5066963;28;20257;-68
2022/02/05 14:44:25;;;;;;;1.07;0.50;;;;;;;;;;5070812;28;20268;-68
2022/02/05 14:46:52;;;;;;;1.23;0.50;;;;;;;;;;5072276;28;20020;-67
2022/02/05 14:49:19;;;;;;;1.23;0.60;;;;;;;;;;5072186;28;20036;-68
2022/02/05 14:51:45;;;;;;;0.63;0.30;;;;;;;;;;5072097;28;20025;-69
2022/02/05 14:54:12;;;;;;;1.47;0.47;;;;;;;;;;5085464;28;20039;-68
2022/02/05 14:56:39;;;;;;;3.30;0.50;;;;;;;;;;5087625;28;20042;-68
2022/02/05 14:59:06;;;;;;;0.87;0.50;;;;;;;;;;5086637;28;20016;-68
2022/02/05 15:01:34;;;;;;;0.97;0.50;;;;;;;;;;5086485;28;20103;-69
2022/02/05 15:04:01;;;;;;;2.27;0.90;;;;;;;;;;5086685;28;20099;-68
2022/02/05 15:06:30;;;;;;;8.80;0.60;;;;;;;;;;5090735;28;20558;-68
2022/02/05 15:08:58;;;;;;;0.40;0.40;;;;;;;;;;5092140;28;20039;-69
2022/02/05 15:11:26;;;;;;;2.17;0.80;;;;;;;;;;5083944;28;20020;-68
2022/02/05 15:13:55;;;;;;;1.10;0.40;;;;;;;;;;5071520;28;20021;-68
2022/02/05 15:16:22;;;;;;;1.23;0.50;;;;;;;;;;5072139;28;20020;-68
2022/02/05 15:18:54;;;;;;;0.50;0.40;;;;;;;;;;5067045;28;20455;-68
2022/02/05 15:21:21;;;;;;;1.83;0.63;;;;;;;;;;5066397;28;20028;-68
2022/02/05 15:23:48;;;;;;;2.20;0.70;;;;;;;;;;5066283;28;20550;-68
2022/02/05 15:26:16;;;;;;;0.70;0.50;;;;;;;;;;5066237;28;20024;-68
2022/02/05 15:28:44;;;;;;;0.60;0.20;;;;;;;;;;5072311;28;20170;-68
2022/02/05 15:31:10;;;;;;;1.60;0.43;;;;;;;;;;5072498;28;20043;-68
2022/02/05 15:33:43;;;;;;;2.53;0.60;;;;;;;;;;5071724;28;20049;-68
2022/02/05 15:36:17;;;;;;;2.13;0.60;;;;;;;;;;5071784;28;20467;-68
2022/02/05 15:39:03;;;;;;;3.13;0.83;;;;;;;;;;5071841;28;20435;-69
2022/02/05 15:44:15;;;;;;;1.90;1.10;;;;;;;;;;5066295;28;20043;-68
2022/02/05 15:46:42;;;;;;;2.53;0.57;;;;;;;;;;5066150;28;20086;-68
2022/02/05 15:49:09;;;;;;;1.07;0.70;;;;;;;;;;5072126;28;20119;-68
2022/02/05 15:51:36;;;;;;;0.87;0.50;;;;;;;;;;5095655;28;20782;-69
2022/02/05 15:54:05;;;;;;;2.33;0.83;;;;;;;;;;5095552;28;20420;-68
2022/02/05 15:59:04;;;;;;;1.67;0.70;;;;;;;;;;5095320;28;20488;-70
2022/02/05 16:01:31;;;;;;;2.13;1.20;;;;;;;;;;5093830;28;20028;-69
2022/02/05 16:03:57;;;;;;;5.27;2.97;;;;;;;;;;5089867;28;20032;-70
2022/02/05 16:06:24;;;;;;;8.10;3.30;;;;;;;;;;5089692;28;20032;-69
2022/02/05 16:08:51;;;;;;;3.47;1.80;;;;;;;;;;5089630;28;20066;-69
2022/02/05 16:11:19;;;;;;;2.90;1.50;;;;;;;;;;5085582;28;20371;-69
2022/02/05 16:13:46;;;;;;;3.03;1.80;;;;;;;;;;5074824;28;20142;-69
2022/02/05 16:16:13;;;;;;;4.40;2.10;;;;;;;;;;5075219;28;20059;-69
2022/02/05 16:18:40;;;;;;;3.27;1.67;;;;;;;;;;5075011;28;20024;-69
2022/02/05 16:21:08;;;;;;;2.73;1.63;;;;;;;;;;5074797;28;20471;-69
2022/02/05 16:23:35;;;;;;;2.27;1.30;;;;;;;;;;5073441;28;20073;-68
2022/02/05 16:26:02;;;;;;;1.93;1.33;;;;;;;;;;5076927;28;20031;-69
2022/02/05 16:28:32;;;;;;;2.40;1.60;;;;;;;;;;5089605;28;20093;-69
2022/02/05 16:31:00;;;;;;;1.83;1.30;;;;;;;;;;5077444;28;20020;-69
2022/02/05 16:33:30;;;;;;;3.70;2.20;;;;;;;;;;5069548;28;20033;-69
2022/02/05 16:36:06;;;;;;;2.30;1.33;;;;;;;;;;5074638;28;20016;-69
2022/02/05 16:38:33;;;;;;;1.87;1.00;;;;;;;;;;5091060;28;20127;-69
2022/02/05 16:41:04;;;;;;;4.97;1.07;;;;;;;;;;5094350;28;20020;-69
2022/02/05 16:43:34;;;;;;;1.73;0.97;;;;;;;;;;5089456;28;20035;-69
2022/02/05 16:46:01;;;;;;;3.83;1.27;;;;;;;;;;5082142;28;20035;-69
2022/02/05 16:48:30;;;;;;;5.97;1.03;;;;;;;;;;5089024;28;20459;-69
2022/02/05 16:50:56;;;;;;;5.33;1.30;;;;;;;;;;5089176;28;20044;-69
2022/02/05 16:53:23;;;;;;;5.37;1.10;;;;;;;;;;5089006;28;20021;-69
2022/02/05 16:55:50;;;;;;;2.17;1.07;;;;;;;;;;5089584;28;20028;-69
2022/02/05 16:58:16;;;;;;;4.37;2.30;;;;;;;;;;5094382;28;20024;-69
2022/02/05 17:00:43;;;;;;;2.87;1.27;;;;;;;;;;5093740;28;20034;-69
2022/02/05 17:03:10;;;;;;;2.20;1.20;;;;;;;;;;5094134;28;20027;-69
2022/02/05 17:05:42;;;;;;;3.40;1.43;;;;;;;;;;5094007;28;20028;-69
2022/02/05 17:08:10;;;;;;;3.27;1.37;;;;;;;;;;5084051;28;20043;-69
2022/02/05 17:10:37;;;;;;;4.43;1.30;;;;;;;;;;5079357;28;20114;-70
2022/02/05 17:13:05;;;;;;;5.07;1.30;;;;;;;;;;5088620;28;20020;-70
2022/02/05 17:15:33;;;;;;;2.10;1.17;;;;;;;;;;5088567;28;20467;-69
2022/02/05 17:18:09;;;;;;;3.57;1.20;;;;;;;;;;5085384;28;20502;-69
2022/02/05 17:20:42;;;;;;;1.80;1.03;;;;;;;;;;5083305;28;20024;-69
2022/02/05 17:23:09;;;;;;;3.33;1.00;;;;;;;;;;5093552;28;20103;-70
2022/02/05 17:25:36;;;;;;;6.27;1.20;;;;;;;;;;5075863;28;20085;-69
2022/02/05 17:28:04;;;;;;;2.73;0.97;;;;;;;;;;5073354;28;20068;-69
2022/02/05 17:30:31;;;;;;;4.67;1.20;;;;;;;;;;5071359;28;20028;-69
2022/02/05 17:32:59;;;;;;;5.33;1.40;;;;;;;;;;5068183;28;20035;-69
2022/02/05 17:35:28;;;;;;;3.20;1.53;;;;;;;;;;5068034;28;20035;-69
2022/02/05 17:37:55;;;;;;;3.23;1.13;;;;;;;;;;5068093;28;20469;-69
2022/02/05 17:40:22;;;;;;;9.37;2.13;;;;;;;;;;5073085;28;20028;-69
2022/02/05 17:42:49;;;;;;;2.60;1.20;;;;;;;;;;5084205;28;20024;-69
2022/02/05 17:45:16;;;;;;;3.40;1.60;;;;;;;;;;5093493;28;20028;-70
2022/02/05 17:47:43;;;;;;;4.43;1.50;;;;;;;;;;5074775;28;20115;-69
2022/02/05 17:50:10;;;;;;;4.27;1.40;;;;;;;;;;5072918;28;20497;-69
2022/02/05 17:52:36;;;;;;;3.33;1.40;;;;;;;;;;5070930;28;20078;-70
2022/02/05 17:55:04;;;;;;;3.40;1.40;;;;;;;;;;5067479;28;20030;-69